Time;durP1;ratioP1;P1;durP2;ratioP2;P2;SDS_P1;SDS_P2;PMS_P1;PMS_P2;Temp;Humidity;BMP_temperature;BMP_pressure;BME280_temperature;BME280_humidity;BME280_pressure;Samples;Min_cycle;Max_cycle;Signal;HPM_P1;HPM_P2
2023/05/21 00:00:19;;;;;;;4.60;4.20;;;14.70;99.90;;;;;;5040845;28;20082;-88
2023/05/21 00:02:46;;;;;;;4.80;4.10;;;14.70;99.90;;;;;;5047254;28;20045;-87
2023/05/21 00:05:15;;;;;;;4.80;4.32;;;14.70;99.90;;;;;;5059664;28;20170;-88
2023/05/21 00:07:42;;;;;;;4.45;4.05;;;14.60;99.90;;;;;;5062930;28;20044;-88
2023/05/21 00:10:09;;;;;;;5.80;4.10;;;14.70;99.90;;;;;;5042392;28;20098;-86
2023/05/21 00:12:35;;;;;;;5.20;4.50;;;14.60;99.90;;;;;;5046595;28;20033;-87
2023/05/21 00:15:01;;;;;;;5.45;4.60;;;14.70;99.90;;;;;;5077264;28;20086;-88
2023/05/21 00:17:30;;;;;;;6.00;4.30;;;14.60;99.90;;;;;;5060707;28;20036;-89
2023/05/21 00:20:00;;;;;;;6.32;4.57;;;14.60;99.90;;;;;;5061824;28;20049;-88
2023/05/21 00:22:29;;;;;;;5.82;4.45;;;14.60;99.90;;;;;;5045885;28;20118;-88
2023/05/21 00:24:55;;;;;;;5.55;4.07;;;14.40;99.90;;;;;;5045301;28;20074;-88
2023/05/21 00:27:25;;;;;;;5.88;4.43;;;14.50;99.90;;;;;;5043108;28;20044;-87
2023/05/21 00:29:51;;;;;;;5.60;4.25;;;14.50;99.90;;;;;;5047291;28;20055;-88
2023/05/21 00:32:20;;;;;;;5.07;4.30;;;14.50;99.90;;;;;;5063411;28;20048;-88
2023/05/21 00:34:48;;;;;;;4.63;4.22;;;14.50;99.90;;;;;;5044481;28;20104;-88
2023/05/21 00:37:24;;;;;;;4.85;4.45;;;14.50;99.90;;;;;;5046519;28;20055;-88
2023/05/21 00:40:05;;;;;;;6.25;4.72;;;14.60;99.90;;;;;;5038790;28;20075;-88
2023/05/21 00:42:45;;;;;;;5.15;4.65;;;14.40;99.90;;;;;;5047438;28;21772;-87
2023/05/21 00:45:17;;;;;;;6.00;4.78;;;14.50;99.90;;;;;;5048531;28;20032;-88
2023/05/21 00:47:49;;;;;;;6.80;4.60;;;14.40;99.90;;;;;;5059498;28;20037;-89
2023/05/21 00:50:18;;;;;;;5.57;4.95;;;14.50;99.90;;;;;;5064912;28;20521;-88
2023/05/21 00:52:49;;;;;;;4.82;4.43;;;14.50;99.90;;;;;;5041879;28;20481;-88
2023/05/21 00:55:18;;;;;;;5.38;4.88;;;14.40;99.90;;;;;;5036795;28;20088;-87
2023/05/21 00:57:44;;;;;;;7.22;4.45;;;14.30;99.90;;;;;;5032389;28;20036;-87
2023/05/21 01:00:15;;;;;;;4.93;4.43;;;14.40;99.90;;;;;;5056818;28;20044;-87
2023/05/21 01:02:42;;;;;;;6.43;4.72;;;14.40;99.90;;;;;;5068905;28;20103;-87
2023/05/21 01:05:15;;;;;;;6.28;5.32;;;14.40;99.90;;;;;;5047767;28;20105;-87
2023/05/21 01:07:41;;;;;;;4.85;4.22;;;14.30;99.90;;;;;;5058167;28;20041;-88
2023/05/21 01:10:09;;;;;;;5.03;4.63;;;14.30;99.90;;;;;;5046665;28;20036;-87
2023/05/21 01:12:42;;;;;;;6.53;5.15;;;14.40;99.90;;;;;;5041319;28;20047;-88
2023/05/21 01:15:09;;;;;;;5.10;4.60;;;14.40;99.90;;;;;;5057498;28;20044;-88
2023/05/21 01:17:36;;;;;;;5.47;4.97;;;14.40;99.90;;;;;;5040990;28;20068;-87
2023/05/21 01:20:10;;;;;;;5.38;4.78;;;14.40;99.90;;;;;;5045506;28;20047;-87
2023/05/21 01:22:41;;;;;;;5.25;4.72;;;14.50;99.90;;;;;;5080329;28;20420;-88
2023/05/21 01:25:09;;;;;;;4.97;4.47;;;14.40;99.90;;;;;;5041535;28;20037;-88
2023/05/21 01:27:35;;;;;;;4.65;4.25;;;14.40;99.90;;;;;;5062924;28;20047;-87
2023/05/21 01:30:02;;;;;;;5.95;5.13;;;14.40;99.90;;;;;;5046371;28;20044;-87
2023/05/21 01:32:37;;;;;;;5.75;4.50;;;14.40;99.90;;;;;;5050272;28;20043;-87
2023/05/21 01:35:16;;;;;;;4.88;4.47;;;14.30;99.90;;;;;;5060509;28;20108;-87
2023/05/21 01:38:08;;;;;;;7.53;4.80;;;14.40;99.90;;;;;;5057233;28;20048;-88
2023/05/21 01:40:57;;;;;;;5.85;4.53;;;14.30;99.90;;;;;;5035747;28;20059;-87
2023/05/21 01:43:26;;;;;;;6.18;4.70;;;14.40;99.90;;;;;;5061051;28;20052;-87
2023/05/21 01:46:06;;;;;;;5.40;4.85;;;14.20;99.90;;;;;;5062449;28;20028;-88
2023/05/21 01:48:37;;;;;;;5.60;4.78;;;14.30;99.90;;;;;;5046590;28;20037;-87
2023/05/21 01:51:07;;;;;;;5.88;5.20;;;14.30;99.90;;;;;;5060159;28;20084;-88
2023/05/21 01:53:34;;;;;;;6.22;4.65;;;14.30;99.90;;;;;;5061763;28;20104;-87
2023/05/21 01:56:13;;;;;;;6.47;5.35;;;14.30;99.90;;;;;;5045052;28;20550;-87
2023/05/21 01:58:49;;;;;;;6.88;4.78;;;14.30;99.90;;;;;;5036309;28;20109;-88
2023/05/21 02:01:17;;;;;;;6.60;4.97;;;14.30;99.90;;;;;;5061916;28;20055;-87
2023/05/21 02:03:52;;;;;;;6.15;4.55;;;14.30;99.90;;;;;;5060098;28;20611;-89
2023/05/21 02:06:19;;;;;;;6.15;4.47;;;14.30;99.90;;;;;;5042584;28;20104;-87
2023/05/21 02:08:47;;;;;;;5.68;5.18;;;14.30;99.90;;;;;;5057728;28;20093;-87
2023/05/21 02:11:13;;;;;;;4.90;4.40;;;14.30;99.90;;;;;;5055990;28;20044;-88
2023/05/21 02:13:40;;;;;;;7.70;4.80;;;14.30;99.90;;;;;;5090610;28;20052;-88
2023/05/21 02:16:10;;;;;;;7.32;5.18;;;14.30;99.90;;;;;;5061331;28;20033;-89
2023/05/21 02:18:43;;;;;;;6.30;4.60;;;14.30;99.90;;;;;;5074729;28;20048;-87
2023/05/21 02:21:12;;;;;;;5.43;4.47;;;14.10;99.90;;;;;;5059747;28;20094;-87
2023/05/21 02:23:38;;;;;;;6.95;4.90;;;14.20;99.90;;;;;;5055872;28;20044;-88
2023/05/21 02:26:04;;;;;;;5.95;5.00;;;14.20;99.90;;;;;;5042301;28;20040;-87
2023/05/21 02:28:31;;;;;;;6.40;4.85;;;14.20;99.90;;;;;;5041071;28;20044;-87
2023/05/21 02:30:57;;;;;;;6.28;5.22;;;14.30;99.90;;;;;;5042697;28;20036;-87
2023/05/21 02:33:27;;;;;;;6.28;5.07;;;14.10;99.90;;;;;;5043862;28;20046;-88
2023/05/21 02:35:59;;;;;;;5.68;4.93;;;14.10;99.90;;;;;;5064242;28;20036;-88
2023/05/21 02:38:25;;;;;;;6.47;4.97;;;14.20;99.90;;;;;;5057992;28;20029;-88
2023/05/21 02:41:01;;;;;;;6.80;5.30;;;14.20;99.90;;;;;;5037141;28;20108;-87
2023/05/21 02:43:29;;;;;;;5.53;5.00;;;14.10;99.90;;;;;;5062177;28;20037;-88
2023/05/21 02:45:55;;;;;;;5.40;4.90;;;14.20;99.90;;;;;;5063818;28;20037;-88
2023/05/21 02:48:29;;;;;;;7.70;5.10;;;14.10;99.90;;;;;;5042407;28;20065;-87
2023/05/21 02:50:56;;;;;;;6.00;5.38;;;14.10;99.90;;;;;;5037902;28;20094;-87
2023/05/21 02:53:22;;;;;;;7.07;5.40;;;14.10;99.90;;;;;;5063650;28;20051;-87
2023/05/21 02:55:48;;;;;;;6.57;5.70;;;14.00;99.90;;;;;;5082323;28;20036;-87
2023/05/21 02:58:14;;;;;;;7.03;5.25;;;14.00;99.90;;;;;;5062409;28;20041;-87
2023/05/21 03:00:43;;;;;;;6.15;5.35;;;14.00;99.90;;;;;;5045441;28;20040;-87
2023/05/21 03:03:10;;;;;;;6.20;5.53;;;13.70;99.90;;;;;;5052249;28;20040;-88
2023/05/21 03:05:36;;;;;;;6.97;5.50;;;14.20;99.90;;;;;;5062038;28;20031;-87
2023/05/21 03:08:02;;;;;;;6.63;5.95;;;14.00;99.90;;;;;;5079796;28;20107;-88
2023/05/21 03:10:36;;;;;;;6.80;5.97;;;14.00;99.90;;;;;;5059421;28;20035;-87
2023/05/21 03:13:05;;;;;;;7.18;5.78;;;14.00;99.90;;;;;;5047458;28;20123;-87
2023/05/21 03:15:34;;;;;;;6.13;5.53;;;13.90;99.90;;;;;;5063903;28;20044;-87
2023/05/21 03:18:03;;;;;;;6.57;5.75;;;14.00;99.90;;;;;;5048237;28;20032;-88
2023/05/21 03:20:32;;;;;;;6.50;5.63;;;14.00;99.90;;;;;;5047474;28;20151;-88
2023/05/21 03:22:59;;;;;;;7.60;6.25;;;13.90;99.90;;;;;;5041587;28;20033;-88
2023/05/21 03:25:28;;;;;;;6.43;5.90;;;13.90;99.90;;;;;;5047623;28;20068;-88
2023/05/21 03:27:56;;;;;;;9.00;6.15;;;14.00;99.90;;;;;;5058211;28;20064;-88
2023/05/21 03:30:22;;;;;;;8.73;6.78;;;13.90;99.90;;;;;;5056879;28;20079;-87
2023/05/21 03:32:51;;;;;;;7.22;5.85;;;13.90;99.90;;;;;;5047115;28;20425;-87
2023/05/21 03:35:18;;;;;;;8.07;6.40;;;13.80;99.90;;;;;;5044974;28;20489;-87
2023/05/21 03:37:45;;;;;;;7.25;6.10;;;13.90;99.90;;;;;;5044060;28;20041;-87
2023/05/21 03:40:13;;;;;;;8.27;6.70;;;13.90;99.90;;;;;;5060279;28;20037;-87
2023/05/21 03:42:42;;;;;;;9.50;6.15;;;13.90;99.90;;;;;;5044395;28;20123;-88
2023/05/21 03:45:12;;;;;;;7.15;6.38;;;14.10;99.90;;;;;;5061806;28;20096;-87
2023/05/21 03:47:40;;;;;;;7.43;6.65;;;13.90;99.90;;;;;;5044466;28;20029;-87
2023/05/21 03:50:08;;;;;;;7.75;6.20;;;13.80;99.90;;;;;;5046120;28;20072;-87
2023/05/21 03:52:37;;;;;;;6.80;5.93;;;13.80;99.90;;;;;;5062138;28;20040;-87
2023/05/21 03:55:11;;;;;;;7.88;6.30;;;13.90;99.90;;;;;;5060074;28;20043;-87
2023/05/21 03:57:40;;;;;;;8.25;6.70;;;13.80;99.90;;;;;;5041588;28;20048;-87
2023/05/21 04:00:09;;;;;;;7.20;6.03;;;13.90;99.90;;;;;;5044456;28;20567;-88
2023/05/21 04:02:36;;;;;;;8.73;6.70;;;13.80;99.90;;;;;;5043239;28;20036;-87
2023/05/21 04:05:10;;;;;;;7.05;6.18;;;13.80;99.90;;;;;;5081770;28;20058;-88
2023/05/21 04:07:45;;;;;;;7.97;6.80;;;13.80;99.90;;;;;;5044444;28;20083;-87
2023/05/21 04:10:17;;;;;;;7.82;6.22;;;13.90;99.90;;;;;;5047869;28;20036;-87
2023/05/21 04:12:56;;;;;;;9.75;6.38;;;13.90;99.90;;;;;;5046845;28;20044;-87
2023/05/21 04:15:28;;;;;;;7.45;6.72;;;13.90;99.90;;;;;;5043746;28;20064;-86
2023/05/21 04:18:06;;;;;;;7.75;6.95;;;13.90;99.90;;;;;;5063711;28;20044;-87
2023/05/21 04:20:46;;;;;;;7.10;6.13;;;13.90;99.90;;;;;;5062535;28;20044;-89
2023/05/21 04:26:44;;;;;;;8.02;6.25;;;14.00;99.90;;;;;;5060275;28;20066;-88
2023/05/21 04:29:10;;;;;;;8.88;6.43;;;13.90;99.90;;;;;;5057119;22;20041;-32
2023/05/21 04:31:39;;;;;;;7.03;5.65;;;13.90;99.90;;;;;;5059525;28;20163;-32
2023/05/21 04:34:06;;;;;;;8.27;5.80;;;13.90;99.90;;;;;;5056100;28;20059;-33
2023/05/21 04:36:32;;;;;;;7.53;6.38;;;14.00;99.90;;;;;;5051326;28;20041;-33
2023/05/21 04:38:58;;;;;;;7.07;5.90;;;13.90;99.90;;;;;;5043148;28;20051;-32
2023/05/21 04:41:24;;;;;;;8.80;6.13;;;13.90;99.90;;;;;;5051159;28;20038;-33
2023/05/21 04:43:53;;;;;;;8.23;6.10;;;14.00;99.90;;;;;;5050546;28;20039;-33
2023/05/21 04:46:24;;;;;;;8.98;5.97;;;14.00;99.90;;;;;;5044249;28;20037;-32
2023/05/21 04:48:53;;;;;;;8.50;6.53;;;14.00;99.90;;;;;;5049781;28;20044;-32
2023/05/21 04:51:21;;;;;;;7.35;6.18;;;14.00;99.90;;;;;;5046354;28;20041;-33
2023/05/21 04:53:48;;;;;;;7.38;5.90;;;14.00;99.90;;;;;;5047995;28;20464;-32
2023/05/21 04:56:18;;;;;;;7.43;5.32;;;14.00;99.90;;;;;;5046371;28;20048;-33
2023/05/21 04:58:46;;;;;;;9.05;5.90;;;14.00;99.90;;;;;;5058464;28;20516;-32
2023/05/21 05:01:13;;;;;;;7.32;5.97;;;14.00;99.90;;;;;;5045900;28;20042;-33
2023/05/21 05:03:39;;;;;;;6.55;5.90;;;14.00;99.90;;;;;;5049643;28;20064;-32
2023/05/21 05:06:07;;;;;;;8.52;5.20;;;14.00;99.90;;;;;;5049873;28;20069;-32
2023/05/21 05:08:33;;;;;;;7.57;5.57;;;14.10;99.90;;;;;;5044685;28;20124;-33
2023/05/21 05:10:59;;;;;;;6.72;5.03;;;14.10;99.90;;;;;;5039458;28;20044;-32
2023/05/21 05:13:25;;;;;;;8.50;6.03;;;14.10;99.90;;;;;;5056377;28;20057;-33
2023/05/21 05:15:52;;;;;;;8.45;5.10;;;14.10;99.90;;;;;;5041954;28;20033;-33
2023/05/21 05:18:19;;;;;;;7.80;5.15;;;14.20;99.90;;;;;;5041109;28;20033;-33
2023/05/21 05:20:46;;;;;;;6.38;5.28;;;14.30;99.90;;;;;;5043115;28;20037;-33
2023/05/21 05:23:15;;;;;;;5.85;5.13;;;14.30;99.90;;;;;;5035458;28;20481;-35
2023/05/21 05:25:43;;;;;;;6.78;5.15;;;14.30;99.90;;;;;;5044926;28;20494;-32
2023/05/21 05:28:09;;;;;;;7.25;5.63;;;14.30;99.90;;;;;;5034891;28;20051;-31
2023/05/21 05:30:35;;;;;;;7.10;5.03;;;14.40;99.90;;;;;;5064038;28;20417;-32
2023/05/21 05:33:01;;;;;;;9.85;5.72;;;14.30;99.90;;;;;;5039381;28;20057;-31
2023/05/21 05:35:27;;;;;;;8.85;5.53;;;14.30;99.90;;;;;;5055849;28;20033;-31
2023/05/21 05:37:53;;;;;;;7.93;5.07;;;14.30;99.90;;;;;;5044910;28;20390;-31
2023/05/21 05:40:21;;;;;;;7.57;5.10;;;14.30;99.90;;;;;;5042928;28;20040;-31
2023/05/21 05:42:48;;;;;;;7.20;4.63;;;14.40;99.90;;;;;;5047475;28;20052;-31
2023/05/21 05:45:14;;;;;;;7.47;5.47;;;14.40;99.90;;;;;;5040775;28;20075;-31
2023/05/21 05:47:41;;;;;;;8.35;5.60;;;14.50;99.90;;;;;;5043502;28;20555;-32
2023/05/21 05:50:07;;;;;;;10.27;5.35;;;14.50;99.90;;;;;;5034580;28;20041;-32
2023/05/21 05:52:33;;;;;;;8.05;5.28;;;14.50;99.90;;;;;;5034510;28;20038;-32
2023/05/21 05:55:00;;;;;;;6.15;5.40;;;14.50;99.90;;;;;;5041626;28;20041;-31
2023/05/21 05:57:26;;;;;;;6.88;5.35;;;14.60;99.90;;;;;;5036806;28;20421;-32
2023/05/21 05:59:52;;;;;;;6.78;5.28;;;14.60;99.90;;;;;;5042426;28;20036;-31
2023/05/21 06:02:18;;;;;;;8.55;5.32;;;14.70;99.90;;;;;;5037358;28;20047;-31
2023/05/21 06:04:44;;;;;;;6.75;5.53;;;14.70;99.90;;;;;;5044558;28;20033;-32
2023/05/21 06:07:10;;;;;;;7.32;4.60;;;14.80;99.90;;;;;;5039182;28;20044;-32
2023/05/21 06:09:37;;;;;;;7.30;5.53;;;14.80;99.90;;;;;;5041660;28;20040;-32
2023/05/21 06:12:05;;;;;;;7.03;4.60;;;14.90;99.90;;;;;;5045391;28;20040;-31
2023/05/21 06:14:31;;;;;;;7.70;4.97;;;14.90;99.90;;;;;;5036742;28;20130;-32
2023/05/21 06:17:19;;;;;;;5.85;4.35;;;15.00;99.90;;;;;;5031227;28;20045;-32
2023/05/21 06:20:07;;;;;;;8.68;5.15;;;15.00;99.90;;;;;;5019527;28;20061;-31
2023/05/21 06:22:34;;;;;;;6.10;4.85;;;15.10;99.90;;;;;;5032367;28;20041;-31
2023/05/21 06:25:00;;;;;;;7.50;4.63;;;15.20;99.90;;;;;;5031653;28;20041;-32
2023/05/21 06:27:25;;;;;;;10.43;4.80;;;15.30;99.90;;;;;;5032238;28;20037;-31
2023/05/21 06:29:51;;;;;;;6.10;4.95;;;15.30;99.90;;;;;;5049538;28;20056;-32
2023/05/21 06:32:33;;;;;;;6.35;4.60;;;15.30;99.90;;;;;;5047305;28;20037;-32
2023/05/21 06:34:59;;;;;;;6.55;5.18;;;15.40;99.90;;;;;;5032093;28;20048;-31
2023/05/21 06:37:25;;;;;;;7.32;4.75;;;15.40;99.90;;;;;;5015803;28;20129;-31
2023/05/21 06:39:52;;;;;;;7.38;4.57;;;15.50;99.90;;;;;;5032270;28;20033;-31
2023/05/21 06:42:18;;;;;;;7.68;4.85;;;15.60;99.90;;;;;;5033861;28;20514;-32
2023/05/21 06:44:45;;;;;;;6.47;4.47;;;15.60;99.90;;;;;;5032266;28;20038;-32
2023/05/21 06:47:11;;;;;;;7.05;4.78;;;15.70;99.90;;;;;;5033172;28;20033;-32
2023/05/21 06:49:40;;;;;;;7.20;4.82;;;15.80;99.90;;;;;;5030840;28;20370;-32
2023/05/21 06:52:07;;;;;;;6.90;4.60;;;15.90;99.90;;;;;;5030394;28;20048;-32
2023/05/21 06:54:33;;;;;;;6.80;4.50;;;16.00;99.90;;;;;;5030546;28;20052;-32
2023/05/21 06:56:59;;;;;;;8.30;5.05;;;16.00;99.90;;;;;;5014517;28;20049;-32
2023/05/21 06:59:25;;;;;;;6.32;4.70;;;16.10;99.90;;;;;;5031365;28;20471;-32
2023/05/21 07:01:50;;;;;;;7.90;4.85;;;16.20;99.90;;;;;;5049800;28;20041;-31
2023/05/21 07:04:16;;;;;;;6.05;4.40;;;16.20;99.90;;;;;;5050070;28;20044;-31
2023/05/21 07:06:42;;;;;;;5.70;4.40;;;16.30;99.90;;;;;;5052977;28;20033;-31
2023/05/21 07:09:09;;;;;;;5.80;4.57;;;16.30;99.90;;;;;;5051447;28;20133;-31
2023/05/21 07:11:35;;;;;;;6.03;5.00;;;16.40;99.90;;;;;;5052386;28;20052;-31
2023/05/21 07:14:02;;;;;;;6.18;4.97;;;16.40;99.90;;;;;;5056448;28;20102;-32
2023/05/21 07:17:17;;;;;;;6.63;4.38;;;16.40;99.90;;;;;;5054452;28;20047;-32
2023/05/21 07:19:43;;;;;;;6.32;4.88;;;16.50;99.90;;;;;;5037554;28;20494;-32
2023/05/21 07:22:11;;;;;;;6.35;4.30;;;16.60;99.90;;;;;;5053207;28;20060;-31
2023/05/21 07:24:37;;;;;;;7.05;4.50;;;16.50;99.90;;;;;;5054622;28;20601;-33
2023/05/21 07:27:05;;;;;;;6.07;4.40;;;16.60;99.90;;;;;;5053397;28;20053;-31
2023/05/21 07:29:32;;;;;;;5.97;4.22;;;16.60;99.90;;;;;;5053533;28;20127;-31
2023/05/21 07:31:58;;;;;;;4.25;3.72;;;16.70;99.90;;;;;;5055099;28;20040;-32
2023/05/21 07:34:25;;;;;;;5.82;4.10;;;16.80;99.90;;;;;;5053451;28;20079;-32
2023/05/21 07:36:51;;;;;;;5.13;3.85;;;16.90;99.90;;;;;;5053577;28;20512;-31
2023/05/21 07:39:17;;;;;;;6.07;4.50;;;17.00;99.90;;;;;;5053874;28;20040;-32
2023/05/21 07:41:43;;;;;;;6.22;4.55;;;17.20;99.90;;;;;;5056397;28;20060;-33
2023/05/21 07:44:09;;;;;;;5.78;4.45;;;17.30;99.90;;;;;;5055494;28;20037;-31
2023/05/21 07:46:35;;;;;;;7.40;4.50;;;17.50;99.90;;;;;;5054804;28;20089;-31
2023/05/21 07:49:01;;;;;;;5.32;4.22;;;17.50;99.90;;;;;;5054434;28;20119;-32
2023/05/21 07:51:27;;;;;;;5.18;4.47;;;17.50;99.90;;;;;;5055385;28;20079;-41
2023/05/21 07:53:53;;;;;;;6.03;4.40;;;17.50;99.90;;;;;;5056294;28;20064;-31
2023/05/21 07:56:19;;;;;;;7.25;4.63;;;17.50;99.90;;;;;;5056020;28;20149;-31
2023/05/21 07:58:46;;;;;;;8.25;4.93;;;17.70;99.90;;;;;;5055143;28;20382;-32
2023/05/21 08:01:12;;;;;;;4.95;4.45;;;17.70;99.90;;;;;;5054732;28;20065;-32
2023/05/21 08:03:38;;;;;;;6.07;5.10;;;17.80;99.90;;;;;;5055831;28;20375;-32
2023/05/21 08:06:04;;;;;;;8.70;4.97;;;17.90;99.90;;;;;;5055020;28;20037;-31
2023/05/21 08:08:30;;;;;;;6.70;4.95;;;18.00;99.90;;;;;;5054480;28;20044;-32
2023/05/21 08:10:56;;;;;;;8.38;5.18;;;18.00;99.90;;;;;;5054934;28;20513;-32
2023/05/21 08:13:22;;;;;;;11.60;5.07;;;18.00;99.90;;;;;;5054546;28;20041;-32
2023/05/21 08:15:48;;;;;;;6.78;4.97;;;18.00;99.90;;;;;;5054364;28;20096;-31
2023/05/21 08:18:16;;;;;;;7.65;4.90;;;18.10;99.90;;;;;;5054009;28;20093;-31
2023/05/21 08:20:42;;;;;;;5.80;4.30;;;18.30;99.90;;;;;;5054378;28;20115;-32
2023/05/21 08:23:08;;;;;;;6.60;5.22;;;18.30;99.90;;;;;;5053996;28;20398;-32
2023/05/21 08:25:34;;;;;;;6.35;4.80;;;18.40;99.90;;;;;;5053909;28;20032;-32
2023/05/21 08:28:00;;;;;;;8.15;4.82;;;18.50;99.90;;;;;;5053533;28;20047;-32
2023/05/21 08:30:26;;;;;;;6.40;4.60;;;18.60;99.90;;;;;;5054111;28;20037;-32
2023/05/21 08:32:53;;;;;;;6.78;4.95;;;18.70;99.90;;;;;;5054626;28;20040;-32
2023/05/21 08:35:19;;;;;;;5.22;4.60;;;18.80;99.90;;;;;;5054155;28;20045;-32
2023/05/21 08:37:45;;;;;;;6.90;5.00;;;18.80;99.90;;;;;;5053758;28;20040;-32
2023/05/21 08:40:12;;;;;;;6.57;4.68;;;18.90;99.90;;;;;;5053841;28;20036;-32
2023/05/21 08:42:46;;;;;;;5.22;4.07;;;19.00;99.90;;;;;;5054154;28;20396;-32
2023/05/21 08:45:13;;;;;;;7.47;5.07;;;19.20;99.90;;;;;;5054609;28;20044;-32
2023/05/21 08:47:43;;;;;;;5.70;4.50;;;19.30;99.90;;;;;;5053672;28;20041;-32
2023/05/21 08:50:15;;;;;;;6.75;4.30;;;19.40;99.90;;;;;;5053577;28;20396;-32
2023/05/21 08:52:42;;;;;;;7.50;4.70;;;19.60;99.90;;;;;;5053579;28;20047;-32
2023/05/21 08:55:09;;;;;;;8.55;4.72;;;20.00;99.90;;;;;;5053269;28;20040;-32
2023/05/21 08:57:35;;;;;;;6.60;4.70;;;20.40;99.90;;;;;;5053393;28;20037;-31
2023/05/21 09:00:05;;;;;;;7.80;4.93;;;20.60;99.90;;;;;;5053988;28;20475;-32
2023/05/21 09:02:37;;;;;;;6.80;4.35;;;20.80;99.90;;;;;;5046553;28;20044;-32
2023/05/21 09:05:08;;;;;;;5.13;4.70;;;21.00;99.90;;;;;;5046715;28;20041;-32
2023/05/21 09:07:44;;;;;;;8.27;5.18;;;21.20;99.90;;;;;;5026083;28;20045;-32
2023/05/21 09:10:12;;;;;;;7.65;4.90;;;21.40;99.90;;;;;;5053771;28;20595;-32
2023/05/21 09:12:38;;;;;;;7.47;5.13;;;21.50;99.90;;;;;;5050226;28;20044;-32
2023/05/21 09:15:05;;;;;;;5.80;5.05;;;21.60;99.90;;;;;;5054432;28;20079;-32
2023/05/21 09:17:31;;;;;;;6.00;4.80;;;21.80;99.90;;;;;;5046554;28;20124;-32
2023/05/21 09:20:11;;;;;;;7.22;4.57;;;21.90;99.90;;;;;;5048018;28;20143;-32
2023/05/21 09:22:41;;;;;;;4.88;4.38;;;22.10;99.90;;;;;;5053308;28;20041;-33
2023/05/21 09:25:08;;;;;;;6.20;4.78;;;22.10;99.90;;;;;;5021320;28;20033;-33
2023/05/21 09:27:34;;;;;;;6.13;4.88;;;22.00;99.90;;;;;;5044168;28;20037;-33
2023/05/21 09:30:07;;;;;;;5.80;4.82;;;21.90;99.90;;;;;;5053453;28;20090;-33
2023/05/21 09:32:33;;;;;;;6.38;5.43;;;22.00;99.90;;;;;;5058237;28;20048;-33
2023/05/21 09:35:13;;;;;;;7.00;5.10;;;22.00;99.90;;;;;;5050640;28;20044;-33
2023/05/21 09:37:42;;;;;;;6.30;4.78;;;22.00;99.90;;;;;;5044863;28;20084;-33
2023/05/21 09:40:15;;;;;;;6.10;5.05;;;22.20;99.90;;;;;;5044182;28;20403;-33
2023/05/21 09:42:51;;;;;;;;;;;22.30;99.90;;;;;;5053811;28;20363;-33
2023/05/21 09:45:21;;;;;;;6.93;5.97;;;22.30;99.90;;;;;;5045002;28;19917;-33
2023/05/21 09:47:49;;;;;;;9.77;6.03;;;22.30;99.90;;;;;;5030877;28;20055;-36
2023/05/21 09:50:19;;;;;;;8.00;5.85;;;22.30;99.90;;;;;;5033507;28;20045;-33
2023/05/21 09:52:47;;;;;;;6.43;5.65;;;22.20;99.90;;;;;;5046028;28;20094;-33
2023/05/21 09:55:13;;;;;;;7.18;5.70;;;22.20;99.90;;;;;;5042166;28;20464;-33
2023/05/21 09:57:44;;;;;;;7.85;5.97;;;22.40;99.90;;;;;;5043571;28;20110;-33
2023/05/21 10:00:30;;;;;;;7.43;6.18;;;22.40;99.90;;;;;;5059753;28;20033;-33
2023/05/21 10:03:00;;;;;;;8.68;7.57;;;22.60;99.90;;;;;;5047297;28;20116;-32
2023/05/21 10:05:28;;;;;;;8.38;7.38;;;22.80;99.90;;;;;;5047827;28;20474;-32
2023/05/21 10:08:03;;;;;;;9.00;6.57;;;23.00;99.90;;;;;;5026601;28;20441;-32
2023/05/21 10:10:30;;;;;;;8.43;7.63;;;23.20;99.90;;;;;;5048020;28;20470;-32
2023/05/21 10:13:02;;;;;;;7.25;6.55;;;23.20;99.90;;;;;;5059473;28;20191;-32
2023/05/21 10:15:33;;;;;;;8.70;6.90;;;23.30;99.90;;;;;;5040336;28;20093;-32
2023/05/21 10:18:02;;;;;;;8.98;8.10;;;23.50;99.90;;;;;;5051833;28;20040;-32
2023/05/21 10:20:29;;;;;;;9.68;8.38;;;23.60;99.90;;;;;;5044475;28;20033;-32
2023/05/21 10:22:57;;;;;;;10.50;8.25;;;23.60;99.90;;;;;;5044571;28;20508;-33
2023/05/21 10:25:24;;;;;;;9.77;7.63;;;23.80;99.90;;;;;;5045379;28;20052;-33
2023/05/21 10:27:50;;;;;;;8.90;8.00;;;24.00;99.90;;;;;;5056830;28;20037;-33
2023/05/21 10:30:17;;;;;;;9.48;8.05;;;24.00;99.90;;;;;;5042595;28;20485;-32
2023/05/21 10:32:44;;;;;;;10.15;9.10;;;24.30;99.90;;;;;;5055120;28;20079;-32
2023/05/21 10:35:13;;;;;;;11.40;8.23;;;24.70;99.90;;;;;;5040940;28;20045;-33
2023/05/21 10:37:40;;;;;;;11.05;9.95;;;24.70;99.80;;;;;;5070833;28;20133;-33
2023/05/21 10:40:06;;;;;;;13.27;9.15;;;24.60;98.50;;;;;;5047760;28;20368;-33
2023/05/21 10:42:32;;;;;;;10.60;9.60;;;24.60;98.40;;;;;;5035669;28;20073;-33
2023/05/21 10:45:17;;;;;;;12.00;9.77;;;24.50;97.70;;;;;;5049004;28;20040;-33
2023/05/21 10:48:15;;;;;;;10.80;9.70;;;24.50;97.30;;;;;;5033392;28;20069;-33
2023/05/21 10:51:03;;;;;;;12.55;11.25;;;24.70;95.50;;;;;;5042428;28;20045;-33
2023/05/21 10:53:57;;;;;;;12.73;11.45;;;24.90;94.60;;;;;;5041699;28;20638;-33
2023/05/21 10:56:22;;;;;;;;;;;25.00;94.10;;;;;;5046740;28;20095;-33
2023/05/21 10:59:20;;;;;;;13.13;9.88;;;25.20;91.90;;;;;;5061695;28;19920;-35
2023/05/21 11:01:54;;;;;;;13.10;10.57;;;25.50;93.30;;;;;;5043069;28;20041;-34
2023/05/21 11:04:25;;;;;;;10.82;9.80;;;25.50;94.00;;;;;;5038925;28;20037;-35
2023/05/21 11:06:51;;;;;;;13.38;10.77;;;25.70;92.40;;;;;;5049407;28;20042;-34
2023/05/21 11:09:17;;;;;;;11.57;10.35;;;25.40;91.30;;;;;;5030101;28;20049;-34
2023/05/21 11:11:47;;;;;;;11.95;10.73;;;25.60;91.50;;;;;;5048504;28;20456;-34
2023/05/21 11:14:33;;;;;;;12.40;11.30;;;25.40;90.70;;;;;;5047073;28;20045;-34
2023/05/21 11:17:01;;;;;;;13.43;12.13;;;25.50;90.00;;;;;;5042121;28;20037;-34
2023/05/21 11:19:40;;;;;;;13.93;11.25;;;25.60;90.50;;;;;;5060359;28;20082;-33
2023/05/21 11:22:26;;;;;;;12.60;11.32;;;25.70;90.30;;;;;;5027602;28;20538;-35
2023/05/21 11:24:53;;;;;;;11.65;10.45;;;26.00;90.00;;;;;;5054606;28;20039;-34
2023/05/21 11:27:39;;;;;;;12.45;11.10;;;26.50;91.30;;;;;;5044167;28;20055;-34
2023/05/21 11:30:06;;;;;;;13.40;11.85;;;26.50;83.20;;;;;;5047826;28;20477;-35
2023/05/21 11:32:39;;;;;;;11.70;10.50;;;26.50;84.80;;;;;;5051203;28;20041;-34
2023/05/21 11:35:05;;;;;;;13.05;11.77;;;26.50;85.30;;;;;;5059598;28;20074;-35
2023/05/21 11:37:33;;;;;;;13.52;12.23;;;26.60;83.80;;;;;;5056687;28;20106;-34
2023/05/21 11:40:25;;;;;;;13.05;11.48;;;26.70;84.00;;;;;;5039959;28;20471;-35
2023/05/21 11:42:52;;;;;;;13.32;12.02;;;27.30;83.90;;;;;;5045824;28;20492;-35
2023/05/21 11:45:19;;;;;;;12.85;11.55;;;27.60;81.10;;;;;;5067735;28;20052;-33
2023/05/21 11:47:47;;;;;;;12.75;11.63;;;27.60;76.90;;;;;;5056964;28;20032;-33
2023/05/21 11:50:14;;;;;;;12.15;10.95;;;27.80;77.20;;;;;;5047224;28;20045;-33
2023/05/21 11:52:41;;;;;;;13.35;12.02;;;28.00;76.00;;;;;;5034736;28;20068;-33
2023/05/21 11:55:07;;;;;;;13.25;12.05;;;28.30;74.40;;;;;;5024146;28;20052;-33
2023/05/21 11:57:33;;;;;;;12.40;11.23;;;28.30;72.10;;;;;;5043654;28;20128;-33
2023/05/21 12:00:01;;;;;;;12.65;11.45;;;28.50;71.20;;;;;;5037842;28;20108;-33
2023/05/21 12:02:31;;;;;;;12.10;10.63;;;28.70;69.80;;;;;;5044387;28;20124;-33
2023/05/21 12:04:59;;;;;;;12.73;11.05;;;28.90;69.70;;;;;;5043417;28;20037;-33
2023/05/21 12:07:28;;;;;;;13.40;12.10;;;29.10;69.10;;;;;;5037512;28;20034;-33
2023/05/21 12:09:55;;;;;;;13.60;12.10;;;29.10;65.80;;;;;;5042595;28;20505;-33
2023/05/21 12:12:24;;;;;;;12.68;11.38;;;29.00;65.00;;;;;;5046463;28;20182;-33
2023/05/21 12:14:54;;;;;;;13.02;11.82;;;28.80;64.10;;;;;;5020650;28;20040;-33
2023/05/21 12:17:22;;;;;;;14.50;13.13;;;28.80;64.30;;;;;;5041689;28;20390;-33
2023/05/21 12:19:50;;;;;;;13.15;11.85;;;28.40;63.90;;;;;;5038140;28;20104;-33
2023/05/21 12:22:16;;;;;;;12.70;11.55;;;28.20;65.30;;;;;;5042748;28;20110;-33
2023/05/21 12:24:43;;;;;;;12.27;11.18;;;28.40;65.30;;;;;;5048191;28;20040;-33
2023/05/21 12:27:09;;;;;;;13.00;11.80;;;29.00;66.20;;;;;;5046057;28;20116;-36
2023/05/21 12:29:37;;;;;;;13.80;12.43;;;29.20;64.80;;;;;;5042196;28;20044;-34
2023/05/21 12:32:08;;;;;;;14.80;13.30;;;29.50;63.10;;;;;;5043248;28;20044;-35
2023/05/21 12:34:44;;;;;;;12.52;11.25;;;29.60;62.70;;;;;;5041574;28;20382;-35
2023/05/21 12:37:20;;;;;;;14.73;12.43;;;29.70;62.70;;;;;;5040943;28;20037;-35
2023/05/21 12:39:51;;;;;;;14.80;13.40;;;29.70;63.20;;;;;;5040688;28;20553;-33
2023/05/21 12:42:34;;;;;;;13.52;12.20;;;29.80;61.00;;;;;;5038572;28;20037;-33
2023/05/21 12:45:06;;;;;;;14.68;13.07;;;29.70;60.40;;;;;;5040572;28;20120;-33
2023/05/21 12:47:32;;;;;;;;;;;29.30;60.60;;;;;;5049566;28;20111;-33
2023/05/21 12:50:00;;;;;;;15.32;13.73;;;29.10;61.40;;;;;;5048766;28;20008;-33
2023/05/21 12:52:26;;;;;;;15.60;14.00;;;29.20;62.20;;;;;;5039894;28;20510;-33
2023/05/21 12:54:55;;;;;;;15.32;13.93;;;29.50;61.30;;;;;;5054685;28;20509;-33
2023/05/21 12:57:22;;;;;;;14.82;13.32;;;29.70;61.10;;;;;;5048209;28;20099;-33